Time;durP1;ratioP1;P1;durP2;ratioP2;P2;SDS_P1;SDS_P2;PMS_P1;PMS_P2;Temp;Humidity;BMP_temperature;BMP_pressure;BME280_temperature;BME280_humidity;BME280_pressure;Samples;Min_cycle;Max_cycle;Signal;HPM_P1;HPM_P2
2023/07/19 00:00:30;;;;;;;;;23.00;22.00;;;;;29.99;46.20;100682.91;146613;631;46016;-71
2023/07/19 00:03:21;;;;;;;;;22.00;20.50;;;;;30.11;46.32;100687.91;146618;570;46014;-70
2023/07/19 00:06:15;;;;;;;;;23.00;18.75;;;;;30.21;46.30;100685.84;146616;613;46013;-70
2023/07/19 00:09:10;;;;;;;;;23.00;20.75;;;;;30.29;45.98;100684.69;146613;591;47020;-70
2023/07/19 00:12:16;;;;;;;;;22.00;21.00;;;;;30.34;46.37;100682.75;146614;584;46016;-70
2023/07/19 00:15:30;;;;;;;;;23.75;20.75;;;;;30.38;46.39;100681.75;146619;586;46010;-71
2023/07/19 00:18:23;;;;;;;;;24.50;21.75;;;;;30.40;51.26;100672.78;146613;783;46016;-72
2023/07/19 00:21:15;;;;;;;;;26.25;25.25;;;;;30.33;53.69;100678.31;146617;577;46037;-71
2023/07/19 00:24:20;;;;;;;;;24.25;22.00;;;;;30.23;53.48;100681.34;146612;593;47014;-75
2023/07/19 00:27:15;;;;;;;;;22.25;21.50;;;;;30.13;54.20;100686.06;146615;636;47010;-77
2023/07/19 00:30:20;;;;;;;;;21.75;19.75;;;;;30.07;55.16;100688.91;146613;628;47016;-76
2023/07/19 00:33:13;;;;;;;;;22.00;20.75;;;;;30.05;54.92;100682.72;146617;567;46015;-76
2023/07/19 00:36:14;;;;;;;;;20.00;19.75;;;;;30.03;53.87;100684.56;146612;567;46017;-76
2023/07/19 00:39:17;;;;;;;;;21.50;20.00;;;;;30.02;54.60;100682.81;146615;596;46020;-74
2023/07/19 00:42:23;;;;;;;;;17.00;15.75;;;;;30.03;53.20;100687.25;146616;564;46013;-73
2023/07/19 00:45:28;;;;;;;;;19.25;18.25;;;;;30.07;54.18;100680.91;146619;573;46010;-76
2023/07/19 00:48:23;;;;;;;;;19.75;18.50;;;;;30.09;53.90;100679.03;146617;643;46013;-73
2023/07/19 00:51:16;;;;;;;;;23.50;21.75;;;;;30.11;53.72;100688.78;146618;586;47010;-73
2023/07/19 00:54:11;;;;;;;;;22.50;21.50;;;;;30.14;54.60;100674.44;146613;592;46016;-72
2023/07/19 00:57:09;;;;;;;;;23.25;23.00;;;;;30.15;53.90;100689.53;146619;650;46021;-73
2023/07/19 01:00:07;;;;;;;;;23.00;21.00;;;;;30.15;53.71;100693.09;146614;586;46916;-72
2023/07/19 01:03:09;;;;;;;;;21.25;20.50;;;;;30.13;51.99;100692.28;146618;603;46020;-73
2023/07/19 01:06:05;;;;;;;;;23.75;21.75;;;;;30.13;53.14;100691.41;146615;614;46016;-74
2023/07/19 01:09:06;;;;;;;;;19.75;18.75;;;;;30.07;53.41;100689.78;146615;636;46020;-74
2023/07/19 01:12:01;;;;;;;;;19.50;17.50;;;;;30.06;52.83;100692.50;146616;573;46016;-74
2023/07/19 01:14:55;;;;;;;;;19.75;19.25;;;;;30.07;52.94;100691.59;146620;621;46020;-72
2023/07/19 01:17:50;;;;;;;;;19.75;17.75;;;;;30.01;52.86;100689.09;146615;612;47012;-74
2023/07/19 01:20:48;;;;;;;;;20.25;19.25;;;;;29.93;51.52;100686.62;146620;604;46010;-74
2023/07/19 01:23:50;;;;;;;;;;;;;;;;;;;;;
2023/07/19 01:26:45;;;;;;;;;20.50;20.00;;;;;29.63;50.24;100683.06;146617;632;46011;-70
2023/07/19 01:29:42;;;;;;;;;21.00;21.00;;;;;29.55;50.58;100682.38;146614;584;46016;-76
2023/07/19 01:32:34;;;;;;;;;19.25;17.00;;;;;29.43;49.94;100683.56;146618;571;46020;-74
2023/07/19 01:35:36;;;;;;;;;20.00;20.00;;;;;29.34;50.13;100678.47;146614;600;46916;-75
2023/07/19 01:38:28;;;;;;;;;21.00;18.25;;;;;29.26;49.89;100676.03;146615;621;46010;-74
2023/07/19 01:41:28;;;;;;;;;20.50;20.50;;;;;29.15;50.34;100680.78;146614;638;47012;-75
2023/07/19 01:44:23;;;;;;;;;22.50;21.75;;;;;29.04;50.00;100675.72;146617;630;46020;-74
2023/07/19 01:47:19;;;;;;;;;20.50;19.00;;;;;28.98;50.23;100682.06;146616;569;47014;-75
2023/07/19 01:50:14;;;;;;;;;21.00;18.25;;;;;28.92;49.30;100682.22;146619;583;46020;-75
2023/07/19 01:53:12;;;;;;;;;20.00;19.00;;;;;28.88;49.41;100687.66;146615;564;46012;-74
2023/07/19 01:56:09;;;;;;;;;17.75;17.50;;;;;28.87;48.75;100688.56;146619;603;46010;-74
2023/07/19 01:59:05;;;;;;;;;20.25;20.25;;;;;28.82;49.31;100691.37;146615;661;47014;-75
2023/07/19 02:02:11;;;;;;;;;22.00;22.00;;;;;28.80;49.90;100693.19;146620;572;46010;-74
2023/07/19 02:05:13;;;;;;;;;20.75;17.00;;;;;28.82;48.91;100693.12;146610;564;46017;-74
2023/07/19 02:08:26;;;;;;;;;;;;;;;;;;;;;
2023/07/19 02:11:30;;;;;;;;;17.75;17.75;;;;;28.79;48.73;100686.09;146616;571;46013;-76
2023/07/19 02:14:42;;;;;;;;;21.00;18.75;;;;;28.76;49.30;100688.84;146617;575;46020;-73
2023/07/19 02:17:33;;;;;;;;;24.25;21.75;;;;;28.80;49.36;100682.50;146615;638;46013;-77
2023/07/19 02:20:31;;;;;;;;;20.75;20.25;;;;;28.84;49.69;100689.53;146618;665;46020;-73
2023/07/19 02:23:32;;;;;;;;;20.00;20.00;;;;;28.90;49.06;100691.16;146614;650;46016;-75
2023/07/19 02:26:38;;;;;;;;;;;;;;;;;;;;;
2023/07/19 02:29:37;;;;;;;;;22.00;20.75;;;;;28.92;49.89;100676.88;146613;601;47012;-77
2023/07/19 02:32:39;;;;;;;;;23.50;20.25;;;;;28.85;50.03;100685.97;146616;582;46011;-76
2023/07/19 02:35:32;;;;;;;;;22.00;19.75;;;;;28.83;52.90;100682.44;146615;582;46016;-75
2023/07/19 02:38:25;;;;;;;;;26.00;22.25;;;;;28.82;52.44;100687.78;146619;582;46020;-78
2023/07/19 02:41:20;;;;;;;;;21.25;21.25;;;;;28.82;54.58;100687.78;146615;571;47013;-78
2023/07/19 02:44:14;;;;;;;;;24.50;22.75;;;;;28.77;54.00;100687.94;146616;582;47020;-72
2023/07/19 02:47:13;;;;;;;;;23.00;22.00;;;;;28.77;53.06;100685.25;146614;641;47015;-74
2023/07/19 02:50:04;;;;;;;;;23.50;23.25;;;;;28.80;53.40;100690.53;146618;633;46010;-74
2023/07/19 02:53:07;;;;;;;;;26.25;24.50;;;;;28.78;53.56;100689.66;146615;615;46014;-72
2023/07/19 02:56:02;;;;;;;;;24.50;23.50;;;;;28.77;53.79;100687.94;146618;602;47014;-71
2023/07/19 02:59:05;;;;;;;;;24.75;23.75;;;;;28.79;54.35;100683.44;146610;592;47016;-72
2023/07/19 03:01:57;;;;;;;;;24.50;21.50;;;;;28.76;53.69;100687.06;146619;578;46021;-72
2023/07/19 03:04:58;;;;;;;;;;;;;;;;;;;;;
2023/07/19 03:07:54;;;;;;;;;19.50;19.50;;;;;28.78;52.75;100687.91;146619;614;46020;-73
2023/07/19 03:10:46;;;;;;;;;24.50;22.50;;;;;28.77;52.92;100688.81;146615;696;47012;-74
2023/07/19 03:13:55;;;;;;;;;25.25;22.75;;;;;28.76;52.76;100692.41;146616;583;46020;-73
2023/07/19 03:16:57;;;;;;;;;22.75;22.50;;;;;28.83;52.11;100698.44;146618;622;46012;-72
2023/07/19 03:19:57;;;;;;;;;27.25;23.75;;;;;28.85;51.70;100696.62;146620;571;45020;-73
2023/07/19 03:22:52;;;;;;;;;20.25;19.25;;;;;28.85;51.82;100703.75;146612;609;46012;-72
2023/07/19 03:25:57;;;;;;;;;23.75;22.50;;;;;28.78;51.78;100706.59;146616;613;46010;-73
2023/07/19 03:29:03;;;;;;;;;25.75;23.00;;;;;27.12;51.37;100436.66;146613;569;46021;-71
2023/07/19 03:32:02;;;;;;;;;24.50;21.25;;;;;28.71;52.62;100706.75;146619;566;46010;-72
2023/07/19 03:35:12;;;;;;;;;21.25;20.75;;;;;28.74;51.86;100709.34;146615;648;46012;-73
2023/07/19 03:38:09;;;;;;;;;24.75;22.50;;;;;28.83;52.58;100714.47;146615;727;46035;-73
2023/07/19 03:41:22;;;;;;;;;24.00;22.50;;;;;28.87;51.89;100713.47;146613;564;47014;-75
2023/07/19 03:44:14;;;;;;;;;24.00;23.75;;;;;28.84;52.82;100718.87;146617;586;47010;-73
2023/07/19 03:47:11;;;;;;;;;23.50;21.25;;;;;28.81;52.30;100726.09;146612;601;47017;-73
2023/07/19 03:50:09;;;;;;;;;29.25;25.00;;;;;28.79;52.46;100731.47;146619;597;46010;-73
2023/07/19 03:53:08;;;;;;;;;20.75;19.25;;;;;28.77;51.51;100734.16;146611;581;46916;-72
2023/07/19 03:56:19;;;;;;;;;20.25;18.25;;;;;28.73;51.82;100729.81;146614;575;47021;-71
2023/07/19 03:59:18;;;;;;;;;19.75;19.75;;;;;28.80;51.04;100737.69;146609;615;47016;-72
2023/07/19 04:02:13;;;;;;;;;21.75;20.25;;;;;28.81;51.71;100732.28;146619;619;46010;-72
2023/07/19 04:05:06;;;;;;;;;20.75;18.75;;;;;28.83;52.29;100730.47;146615;641;46023;-74
2023/07/19 04:08:01;;;;;;;;;20.25;18.75;;;;;28.84;51.64;100732.22;146620;587;46010;-73
2023/07/19 04:11:32;;;;;;;;;;;;;;;;;;;;;
2023/07/19 04:14:31;;;;;;;;;18.75;18.00;;;;;28.83;51.98;100741.16;146615;573;47022;-72
2023/07/19 04:17:43;;;;;;;;;21.00;19.00;;;;;28.85;51.76;100739.34;146615;595;46017;-72
2023/07/19 04:20:41;;;;;;;;;21.75;20.00;;;;;28.95;52.47;100729.31;146617;599;48010;-72
2023/07/19 04:23:39;;;;;;;;;22.00;17.75;;;;;29.08;51.75;100730.78;146613;741;47015;-72
2023/07/19 04:26:33;;;;;;;;;19.75;19.75;;;;;29.24;51.35;100731.25;146617;592;46020;-71
2023/07/19 04:29:25;;;;;;;;;21.25;19.50;;;;;29.46;50.61;100727.09;146613;584;46016;-71
2023/07/19 04:32:21;;;;;;;;;28.25;26.50;;;;;29.79;49.79;100734.28;146612;660;47011;-71
2023/07/19 04:35:20;;;;;;;;;20.00;17.50;;;;;30.09;48.06;100736.09;146613;592;46016;-71
2023/07/19 04:38:21;;;;;;;;;17.00;16.00;;;;;30.41;47.70;100739.63;146615;612;46015;-71
2023/07/19 04:41:14;;;;;;;;;25.00;19.00;;;;;30.70;46.86;100736.03;146614;590;47016;-76
2023/07/19 04:44:12;;;;;;;;;15.75;15.75;;;;;30.97;45.50;100736.09;146618;574;46020;-73
2023/07/19 04:47:09;;;;;;;;;14.00;14.00;;;;;31.17;43.55;100733.62;146615;575;46031;-72
2023/07/19 04:50:09;;;;;;;;;15.50;14.50;;;;;31.37;43.60;100724.03;146613;662;47010;-71
2023/07/19 04:53:01;;;;;;;;;14.25;13.00;;;;;31.51;42.35;100725.31;146612;637;47016;-72
2023/07/19 04:56:02;;;;;;;;;15.25;15.25;;;;;31.69;41.98;100733.62;146615;597;46020;-77
2023/07/19 04:58:57;;;;;;;;;13.75;13.00;;;;;31.83;42.39;100727.75;146614;565;46014;-75
2023/07/19 05:01:49;;;;;;;;;14.50;12.00;;;;;31.97;42.02;100729.03;146620;622;45031;-74
2023/07/19 05:04:49;;;;;;;;;16.00;13.00;;;;;32.07;41.70;100724.19;146611;624;47016;-74
2023/07/19 05:07:47;;;;;;;;;15.00;14.25;;;;;32.18;42.01;100732.72;146614;564;47010;-77
2023/07/19 05:10:43;;;;;;;;;15.25;14.25;;;;;32.30;40.51;100739.41;146613;579;46012;-75
2023/07/19 05:13:40;;;;;;;;;11.00;10.75;;;;;32.40;41.01;100737.22;146616;569;47014;-76
2023/07/19 05:16:57;;;;;;;;;16.75;16.25;;;;;32.52;41.24;100736.78;146610;687;47013;-75
2023/07/19 05:19:58;;;;;;;;;14.50;13.75;;;;;32.63;40.82;100729.19;146616;564;46020;-77
2023/07/19 05:22:52;;;;;;;;;13.50;12.25;;;;;32.74;39.99;100735.91;146615;564;46035;-75
2023/07/19 05:25:45;;;;;;;;;13.25;13.25;;;;;32.83;40.65;100727.50;146616;566;47010;-76
2023/07/19 05:28:52;;;;;;;;;12.00;12.00;;;;;32.96;40.59;100730.53;146613;609;46016;-77
2023/07/19 05:31:45;;;;;;;;;14.75;11.00;;;;;33.05;39.14;100724.81;146619;596;45021;-75
2023/07/19 05:34:37;;;;;;;;;16.75;16.25;;;;;33.14;39.97;100723.56;146615;632;46916;-76
2023/07/19 05:37:34;;;;;;;;;12.75;12.00;;;;;33.21;38.79;100723.25;146618;583;47010;-78
2023/07/19 05:40:30;;;;;;;;;14.50;14.00;;;;;33.29;38.45;100722.91;146612;652;47012;-74
2023/07/19 05:43:22;;;;;;;;;13.75;13.25;;;;;32.64;38.62;100598.50;146618;564;46010;-78
2023/07/19 05:46:29;;;;;;;;;14.75;13.25;;;;;33.44;40.50;100721.37;146613;630;47026;-73
2023/07/19 05:49:33;;;;;;;;;13.25;12.25;;;;;33.53;40.17;100715.63;146619;575;46014;-77
2023/07/19 05:52:30;;;;;;;;;14.50;13.50;;;;;33.63;38.23;100716.06;146613;569;46016;-72
2023/07/19 05:55:28;;;;;;;;;10.75;10.75;;;;;33.71;38.72;100709.41;146620;575;46020;-72
2023/07/19 05:58:27;;;;;;;;;14.00;13.00;;;;;33.82;37.39;100708.91;146616;606;46012;-73
2023/07/19 06:01:30;;;;;;;;;14.50;12.00;;;;;33.93;38.97;100705.75;146616;573;46021;-73
2023/07/19 06:04:34;;;;;;;;;15.50;14.00;;;;;34.01;38.60;100704.44;146614;569;46916;-73
2023/07/19 06:07:29;;;;;;;;;13.25;13.00;;;;;34.14;36.94;100702.06;146618;581;46010;-70
2023/07/19 06:10:24;;;;;;;;;11.00;10.50;;;;;34.20;36.88;100693.69;146611;677;46016;-72
2023/07/19 06:13:16;;;;;;;;;13.00;11.50;;;;;34.29;36.63;100684.31;146620;578;46020;-71
2023/07/19 06:16:12;;;;;;;;;13.00;12.25;;;;;34.43;37.92;100700.69;146615;657;46017;-76
2023/07/19 06:19:04;;;;;;;;;16.50;14.50;;;;;34.52;41.43;100703.84;146611;645;46916;-74
2023/07/19 06:21:59;;;;;;;;;17.75;17.75;;;;;34.43;42.86;100699.81;146617;613;46017;-73
2023/07/19 06:24:57;;;;;;;;;17.25;15.75;;;;;34.41;42.42;100705.25;146617;578;47010;-74
2023/07/19 06:27:54;;;;;;;;;18.75;18.25;;;;;34.34;42.78;100703.81;146611;578;47016;-73
2023/07/19 06:30:47;;;;;;;;;20.00;19.00;;;;;34.23;41.45;100698.94;146619;617;45021;-74
2023/07/19 06:33:50;;;;;;;;;20.25;18.25;;;;;34.13;42.89;100696.78;146614;584;47012;-73
2023/07/19 06:36:53;;;;;;;;;21.50;19.25;;;;;34.01;43.07;100700.88;146617;650;47010;-73
2023/07/19 06:39:46;;;;;;;;;17.25;16.50;;;;;34.05;43.85;100690.87;146615;719;46016;-72
2023/07/19 06:42:42;;;;;;;;;20.00;19.00;;;;;34.13;43.50;100683.31;146617;611;46014;-72
2023/07/19 06:45:43;;;;;;;;;21.00;19.00;;;;;34.18;44.30;100666.00;146606;635;47016;-72
2023/07/19 06:48:42;;;;;;;;;19.50;16.50;;;;;34.27;43.53;100670.09;146614;620;48020;-72
2023/07/19 06:51:37;;;;;;;;;19.50;16.00;;;;;34.41;41.26;100666.72;146612;605;46016;-73
2023/07/19 06:54:49;;;;;;;;;18.00;17.50;;;;;34.49;44.24;100665.38;146616;626;47010;-72
2023/07/19 06:57:44;;;;;;;;;17.50;17.50;;;;;34.37;45.64;100666.00;146614;569;46016;-72
2023/07/19 07:00:51;;;;;;;;;23.25;21.00;;;;;34.15;45.07;100650.00;146618;601;47014;-73
2023/07/19 07:03:33;;;;;;;;;24.00;23.50;;;;;33.88;44.81;100652.16;146694;564;46023;-73
2023/07/19 07:06:31;;;;;;;;;22.00;20.50;;;;;33.71;46.57;100661.00;146607;628;46012;-73
2023/07/19 07:09:29;;;;;;;;;26.00;24.50;;;;;33.53;46.63;100667.22;146612;652;46020;-72
2023/07/19 07:12:28;;;;;;;;;24.75;22.50;;;;;33.32;47.25;100669.88;146605;614;46016;-73
2023/07/19 07:15:31;;;;;;;;;21.75;18.75;;;;;33.19;46.47;100671.37;146609;601;47020;-73
2023/07/19 07:18:34;;;;;;;;;;;;;;;;;;;;;
2023/07/19 07:21:33;;;;;;;;;24.25;22.75;;;;;33.08;45.27;100666.44;146607;566;46020;-74
2023/07/19 07:24:39;;;;;;;;;21.25;19.75;;;;;33.15;45.26;100667.09;146602;618;47016;-74
2023/07/19 07:27:31;;;;;;;;;19.50;18.25;;;;;33.28;45.10;100670.09;146610;571;46020;-73
2023/07/19 07:30:29;;;;;;;;;21.75;20.75;;;;;33.45;44.24;100667.53;146604;569;46916;-74
2023/07/19 07:33:21;;;;;;;;;20.00;18.50;;;;;33.69;42.84;100667.41;146608;637;46010;-73
2023/07/19 07:36:17;;;;;;;;;18.25;17.50;;;;;33.93;42.39;100670.78;146603;664;47016;-74
2023/07/19 07:39:11;;;;;;;;;22.75;22.00;;;;;34.14;40.93;100663.53;146608;566;47010;-74
2023/07/19 07:42:09;;;;;;;;;19.50;18.25;;;;;34.29;40.04;100678.94;146606;572;46017;-74
2023/07/19 07:45:10;;;;;;;;;17.00;16.00;;;;;34.37;39.11;100674.06;146609;630;46010;-75
2023/07/19 07:48:02;;;;;;;;;17.75;16.50;;;;;34.45;38.71;100681.75;146605;609;46016;-72
2023/07/19 07:51:08;;;;;;;;;20.00;19.75;;;;;34.52;39.43;100683.22;146607;650;47010;-73
2023/07/19 07:54:01;;;;;;;;;22.25;19.75;;;;;34.70;39.79;100685.00;146604;607;46033;-74
2023/07/19 07:57:11;;;;;;;;;16.75;16.00;;;;;34.99;37.82;100692.59;146611;615;46021;-73
2023/07/19 08:00:35;;;;;;;;;16.75;15.25;;;;;35.13;38.61;100682.88;146598;599;47914;-74
2023/07/19 08:03:34;;;;;;;;;16.50;16.00;;;;;35.31;38.12;100685.56;146608;574;46020;-74
2023/07/19 08:06:36;;;;;;;;;20.75;17.75;;;;;35.51;38.30;100697.97;146605;564;46016;-74
2023/07/19 08:09:30;;;;;;;;;20.00;18.50;;;;;35.68;35.62;100673.72;146607;651;47015;-74
2023/07/19 08:12:25;;;;;;;;;;;;;;;;;;;;;
2023/07/19 08:15:23;;;;;;;;;16.25;14.75;;;;;35.87;36.29;100688.91;146608;648;46016;-72
2023/07/19 08:18:19;;;;;;;;;16.75;15.75;;;;;35.91;36.39;100685.94;146607;611;46021;-72
2023/07/19 08:21:24;;;;;;;;;14.50;14.50;;;;;35.98;36.62;100686.47;146603;612;46016;-72
2023/07/19 08:24:17;;;;;;;;;14.75;14.75;;;;;36.03;35.72;100671.81;146609;701;46021;-72
2023/07/19 08:27:16;;;;;;;;;17.75;17.75;;;;;36.10;35.28;100683.12;146606;615;46012;-73
2023/07/19 08:30:20;;;;;;;;;17.00;16.00;;;;;36.14;37.34;100687.41;146607;680;47010;-75
2023/07/19 08:33:17;;;;;;;;;15.75;14.00;;;;;36.21;35.28;100691.50;146605;722;46027;-72
2023/07/19 08:36:23;;;;;;;;;19.25;15.75;;;;;36.20;35.59;100681.66;146608;584;46020;-73
2023/07/19 08:39:24;;;;;;;;;15.25;14.25;;;;;36.29;36.80;100686.53;146603;616;47014;-72
2023/07/19 08:42:25;;;;;;;;;15.75;14.75;;;;;36.38;34.95;100682.44;146606;573;47010;-75
2023/07/19 08:45:24;;;;;;;;;14.75;14.75;;;;;36.43;34.32;100682.19;146602;564;46016;-73
2023/07/19 08:48:19;;;;;;;;;13.00;12.75;;;;;36.44;34.58;100675.81;146607;624;47010;-74
2023/07/19 08:51:17;;;;;;;;;14.50;14.50;;;;;36.46;34.28;100680.16;146604;629;46016;-73
2023/07/19 08:54:29;;;;;;;;;15.00;14.00;;;;;36.46;34.45;100684.69;146608;584;46021;-72
2023/07/19 08:57:21;;;;;;;;;14.50;14.50;;;;;36.37;35.82;100679.84;146600;563;47012;-73
2023/07/19 09:00:15;;;;;;;;;16.00;16.00;;;;;36.39;35.01;100678.78;146607;599;48020;-72
2023/07/19 09:03:17;;;;;;;;;18.25;15.25;;;;;36.47;36.28;100681.91;146604;599;46016;-71
2023/07/19 09:06:15;;;;;;;;;15.50;14.25;;;;;36.56;35.19;100680.53;146606;619;47010;-72
2023/07/19 09:09:14;;;;;;;;;17.00;16.00;;;;;36.69;34.89;100683.38;146602;569;46918;-72
2023/07/19 09:12:21;;;;;;;;;14.25;13.75;;;;;36.83;36.94;100672.66;146603;599;47012;-72
2023/07/19 09:15:19;;;;;;;;;17.00;14.25;;;;;36.89;34.59;100674.13;146603;596;47016;-73
2023/07/19 09:18:19;;;;;;;;;15.75;14.50;;;;;36.93;34.39;100681.09;146609;617;46010;-73
2023/07/19 09:21:10;;;;;;;;;15.75;14.50;;;;;36.91;35.51;100677.59;146603;577;46012;-71
2023/07/19 09:24:07;;;;;;;;;13.75;13.50;;;;;36.79;34.13;100686.41;146609;624;46020;-71
2023/07/19 09:27:04;;;;;;;;;17.25;15.25;;;;;36.66;34.84;100681.72;146604;639;46016;-71
2023/07/19 09:30:16;;;;;;;;;15.75;14.50;;;;;36.62;35.30;100682.00;146607;592;47010;-74
2023/07/19 09:33:09;;;;;;;;;15.75;14.50;;;;;35.56;34.05;100510.75;146601;565;47017;-73
2023/07/19 09:36:02;;;;;;;;;17.25;16.25;;;;;36.53;33.71;100681.56;146608;563;46010;-71
2023/07/19 09:39:10;;;;;;;;;17.00;16.00;;;;;36.49;34.69;100671.88;146602;599;47918;-73
2023/07/19 09:42:14;;;;;;;;;19.50;18.25;;;;;36.51;34.75;100674.53;146609;632;46020;-72
2023/07/19 09:45:25;;;;;;;;;;;;;;;;;;;;;
2023/07/19 09:48:29;;;;;;;;;16.50;16.50;;;;;36.43;34.73;100668.69;146608;690;46020;-71
2023/07/19 09:51:25;;;;;;;;;14.75;14.50;;;;;36.42;35.02;100675.00;146599;563;47012;-72
2023/07/19 09:54:18;;;;;;;;;15.50;13.50;;;;;36.39;34.81;100670.69;146607;593;46021;-71
2023/07/19 09:57:10;;;;;;;;;13.25;13.25;;;;;36.36;34.75;100665.47;146601;585;46016;-71
2023/07/19 10:00:06;;;;;;;;;14.00;12.00;;;;;36.36;34.48;100673.56;146602;578;47010;-73
2023/07/19 10:02:59;;;;;;;;;16.75;15.50;;;;;36.41;36.19;100673.28;146602;595;47012;-72
2023/07/19 10:06:03;;;;;;;;;17.00;16.00;;;;;36.43;36.60;100668.69;146606;613;47010;-71
2023/07/19 10:09:49;;;;;;;;;18.00;17.50;;;;;35.68;35.89;100557.72;146604;584;47013;-74
2023/07/19 10:12:52;;;;;;;;;17.75;16.50;;;;;36.34;34.50;100677.31;146635;589;46010;-71
2023/07/19 10:15:57;;;;;;;;;16.25;14.50;;;;;36.33;36.21;100680.94;146631;569;48010;-72
2023/07/19 10:18:49;;;;;;;;;14.75;14.75;;;;;36.35;35.24;100676.34;146629;653;46010;-71
2023/07/19 10:21:44;;;;;;;;;18.50;17.00;;;;;36.34;35.21;100669.19;146632;585;46014;-70
2023/07/19 10:24:43;;;;;;;;;17.25;16.50;;;;;36.32;35.19;100677.37;146635;595;46030;-69
2023/07/19 10:27:59;;;;;;;;;16.00;14.50;;;;;36.30;36.88;100661.28;146627;626;47016;-69
2023/07/19 10:31:12;;;;;;;;;13.00;12.25;;;;;35.55;37.31;100529.72;146632;591;46031;-70
2023/07/19 10:34:13;;;;;;;;;16.50;15.75;;;;;36.39;36.12;100675.19;146629;591;46012;-69
2023/07/19 10:37:28;;;;;;;;;16.00;14.50;;;;;35.07;37.58;100443.34;146633;604;46010;-70
2023/07/19 10:40:26;;;;;;;;;16.50;15.00;;;;;36.36;36.63;100664.56;146631;601;45016;-70
2023/07/19 10:43:21;;;;;;;;;15.75;13.75;;;;;36.35;37.33;100663.69;146633;634;46020;-70
2023/07/19 10:46:18;;;;;;;;;13.25;13.25;;;;;36.36;36.74;100659.16;146622;608;48017;-71
2023/07/19 10:49:32;;;;;;;;;14.00;13.50;;;;;36.34;38.33;100656.56;146634;690;45020;-70
2023/07/19 10:52:40;;;;;;;;;;;;;;;;;;;;;
2023/07/19 10:55:38;;;;;;;;;16.50;15.50;;;;;36.42;38.19;100653.41;146632;596;46010;-70
2023/07/19 10:58:30;;;;;;;;;15.50;15.00;;;;;36.52;37.43;100638.47;146628;580;46016;-70
2023/07/19 11:01:26;;;;;;;;;15.75;14.50;;;;;36.61;37.10;100637.94;146635;570;45021;-70
2023/07/19 11:04:23;;;;;;;;;14.00;13.00;;;;;36.67;36.70;100625.88;146632;564;45917;-70
2023/07/19 11:07:20;;;;;;;;;17.25;13.00;;;;;36.69;37.01;100624.81;146633;647;45021;-70
2023/07/19 11:10:16;;;;;;;;;12.50;11.50;;;;;36.70;36.68;100626.59;146623;615;46014;-69
2023/07/19 11:13:15;;;;;;;;;12.75;12.00;;;;;36.71;36.50;100633.72;146606;575;47020;-70
2023/07/19 11:16:09;;;;;;;;;13.00;12.25;;;;;36.75;35.69;100629.00;146603;567;47012;-70
2023/07/19 11:19:28;;;;;;;;;;;;;;;;;;;;;
2023/07/19 11:22:30;;;;;;;;;8.25;8.25;;;;;36.73;35.56;100623.69;146604;571;46017;-70
2023/07/19 11:25:33;;;;;;;;;11.50;10.75;;;;;36.70;37.26;100626.59;146613;620;47020;-69
2023/07/19 11:28:46;;;;;;;;;12.50;12.50;;;;;36.62;38.25;100619.87;146604;603;46918;-70
2023/07/19 11:31:42;;;;;;;;;14.00;13.25;;;;;36.49;38.55;100622.41;146606;574;47020;-69
2023/07/19 11:34:48;;;;;;;;;12.50;9.75;;;;;36.36;37.81;100614.16;146604;565;46034;-69
2023/07/19 11:37:47;;;;;;;;;12.00;12.00;;;;;36.35;38.91;100609.69;146616;637;46021;-69
2023/07/19 11:40:53;;;;;;;;;14.25;13.75;;;;;36.44;37.87;100605.59;146601;581;47012;-70
2023/07/19 11:43:47;;;;;;;;;9.00;9.00;;;;;36.40;36.52;100602.22;146606;583;47010;-70
2023/07/19 11:46:48;;;;;;;;;11.00;11.00;;;;;36.41;37.32;100603.94;146609;598;46017;-70
2023/07/19 11:49:43;;;;;;;;;12.00;11.75;;;;;36.42;37.16;100603.00;146603;579;47030;-70
2023/07/19 11:52:59;;;;;;;;;8.50;8.50;;;;;36.41;35.97;100593.13;146604;661;46012;-69
2023/07/19 11:55:54;;;;;;;;;11.25;10.75;;;;;36.43;36.47;100584.97;146618;569;46020;-70
2023/07/19 11:58:50;;;;;;;;;12.25;10.75;;;;;36.38;37.55;100585.22;146602;596;47015;-70
2023/07/19 12:01:44;;;;;;;;;11.50;10.75;;;;;35.62;37.83;100467.25;146608;645;46026;-70
2023/07/19 12:04:39;;;;;;;;;10.25;10.25;;;;;36.31;37.69;100586.53;146602;563;47012;-70
2023/07/19 12:07:34;;;;;;;;;10.00;10.00;;;;;36.35;37.21;100590.78;146607;616;46021;-69
2023/07/19 12:10:29;;;;;;;;;11.00;11.00;;;;;36.40;36.90;100585.16;146603;712;47918;-70
2023/07/19 12:13:24;;;;;;;;;10.50;10.25;;;;;36.44;38.62;100582.16;146605;570;47010;-70
2023/07/19 12:16:16;;;;;;;;;11.25;11.25;;;;;36.47;39.66;100579.28;146603;569;47022;-70
2023/07/19 12:19:17;;;;;;;;;11.75;10.75;;;;;36.50;36.99;100576.44;146605;637;47012;-70
2023/07/19 12:22:09;;;;;;;;;13.25;11.50;;;;;36.50;40.41;100571.03;146600;604;48012;-71
2023/07/19 12:25:04;;;;;;;;;11.50;10.00;;;;;36.47;40.34;100570.31;146604;619;48010;-70
2023/07/19 12:27:56;;;;;;;;;11.50;10.50;;;;;36.43;38.47;100569.63;146607;578;46016;-71
2023/07/19 12:30:52;;;;;;;;;12.25;10.00;;;;;36.37;38.59;100569.13;146608;569;47021;-71
2023/07/19 12:33:53;;;;;;;;;11.75;11.50;;;;;36.31;40.09;100555.00;146603;624;47012;-70
2023/07/19 12:36:50;;;;;;;;;12.25;10.50;;;;;36.30;38.05;100565.91;146607;671;46028;-70
2023/07/19 12:39:47;;;;;;;;;11.00;10.50;;;;;36.26;38.32;100557.12;146603;673;46016;-71
2023/07/19 12:42:46;;;;;;;;;11.00;10.50;;;;;36.26;37.14;100553.53;146608;613;47020;-71
2023/07/19 12:45:44;;;;;;;;;11.00;10.00;;;;;36.30;37.95;100564.09;146602;627;47012;-71
2023/07/19 12:48:43;;;;;;;;;12.50;10.00;;;;;36.29;38.19;100556.97;146607;594;47010;-69
2023/07/19 12:51:41;;;;;;;;;10.00;9.25;;;;;36.25;37.86;100549.97;146606;631;47017;-70
2023/07/19 12:54:36;;;;;;;;;12.75;12.00;;;;;36.22;38.48;100549.28;146615;666;46020;-70
2023/07/19 12:57:35;;;;;;;;;13.25;11.00;;;;;36.16;39.18;100550.50;146604;565;46015;-70
2023/07/19 13:00:36;;;;;;;;;13.25;11.50;;;;;36.15;37.50;100542.53;146609;612;46021;-69
2023/07/19 13:03:39;;;;;;;;;10.50;10.50;;;;;36.07;37.96;100534.84;146602;591;46016;-70
2023/07/19 13:06:34;;;;;;;;;9.25;8.50;;;;;36.00;36.29;100530.75;146609;615;46021;-71
2023/07/19 13:09:26;;;;;;;;;10.00;10.00;;;;;35.98;36.11;100541.66;146611;616;46014;-70
2023/07/19 13:12:28;;;;;;;;;11.00;11.00;;;;;35.96;36.97;100537.28;146630;563;46010;-71
2023/07/19 13:15:24;;;;;;;;;9.75;9.75;;;;;35.94;36.87;100525.69;146632;597;46016;-70
2023/07/19 13:18:22;;;;;;;;;11.75;11.75;;;;;35.95;38.48;100532.81;146636;620;45020;-70
2023/07/19 13:21:20;;;;;;;;;9.75;9.75;;;;;35.94;39.64;100521.16;146632;639;46012;-70
2023/07/19 13:24:16;;;;;;;;;13.00;12.00;;;;;35.93;37.16;100516.75;146629;622;45020;-70
2023/07/19 13:27:12;;;;;;;;;11.00;11.00;;;;;35.95;37.57;100514.84;146633;658;46012;-71
2023/07/19 13:30:14;;;;;;;;;12.00;11.00;;;;;35.95;38.15;100511.25;146632;570;46012;-71
2023/07/19 13:33:07;;;;;;;;;10.00;10.00;;;;;35.92;39.73;100504.22;146633;611;46025;-71
2023/07/19 13:36:01;;;;;;;;;9.75;9.50;;;;;35.84;38.07;100512.75;146634;585;46012;-72
2023/07/19 13:38:53;;;;;;;;;10.50;9.50;;;;;35.84;38.45;100504.66;146634;630;46916;-70
2023/07/19 13:41:55;;;;;;;;;12.75;12.00;;;;;35.87;38.16;100506.31;146636;624;46010;-71
2023/07/19 13:45:06;;;;;;;;;11.00;11.00;;;;;35.05;38.57;100360.84;146634;575;46012;-71
2023/07/19 13:47:46;;;;;;;;;8.50;7.25;;;;;35.82;37.53;100505.69;146697;567;46014;-69